Time;durP1;ratioP1;P1;durP2;ratioP2;P2;SDS_P1;SDS_P2;PMS_P1;PMS_P2;Temp;Humidity;BMP_temperature;BMP_pressure;BME280_temperature;BME280_humidity;BME280_pressure;Samples;Min_cycle;Max_cycle;Signal;HPM_P1;HPM_P2
2023/05/03 00:00:06;;;;;;;;;;;;;;;14.81;43.50;101732.63;4956199;28;97930;-77
2023/05/03 00:02:38;;;;;;;;;;;;;;;14.80;43.37;101725.59;4919225;28;98356;-78
2023/05/03 00:05:11;;;;;;;;;;;;;;;14.79;43.43;101728.59;4956941;27;97982;-78
2023/05/03 00:07:39;;;;;;;;;;;;;;;14.78;43.60;101744.06;4943786;28;99165;-77
2023/05/03 00:10:07;;;;;;;;;;;;;;;14.77;43.61;101744.31;4917369;28;99848;-77
2023/05/03 00:12:33;;;;;;;;;;;;;;;14.74;43.48;101737.53;4913204;28;97907;-77
2023/05/03 00:15:01;;;;;;;;;;;;;;;14.74;43.25;101737.53;4904923;28;98180;-77
2023/05/03 00:17:30;;;;;;;;;;;;;;;14.73;43.51;101739.41;4921565;28;99522;-77
2023/05/03 00:19:59;;;;;;;;;;;;;;;14.72;43.41;101739.66;4919242;28;98057;-77
2023/05/03 00:22:25;;;;;;;;;;;;;;;14.70;43.72;101745.38;4908944;28;98103;-77
2023/05/03 00:24:52;;;;;;;;;;;;;;;14.70;43.55;101734.50;4925727;28;98573;-77
2023/05/03 00:27:19;;;;;;;;;;;;;;;14.68;43.71;101736.66;4911319;28;98163;-77
2023/05/03 00:29:53;;;;;;;;;;;;;;;14.67;43.36;101729.59;4910208;28;99094;-77
2023/05/03 00:32:21;;;;;;;;;;;;;;;14.65;43.42;101731.75;4909334;28;98289;-77
2023/05/03 00:34:55;;;;;;;;;;;;;;;14.65;43.44;101734.47;4916567;28;98209;-77
2023/05/03 00:37:25;;;;;;;;;;;;;;;14.62;43.48;101736.91;4908860;28;99128;-77
2023/05/03 00:39:53;;;;;;;;;;;;;;;14.61;43.41;101733.38;4921641;28;99367;-77
2023/05/03 00:42:20;;;;;;;;;;;;;;;14.60;43.34;101728.22;4909200;28;98185;-77
2023/05/03 00:44:48;;;;;;;;;;;;;;;14.57;43.96;101723.31;4904099;28;98296;-77
2023/05/03 00:47:15;;;;;;;;;;;;;;;14.57;43.19;101724.13;4909533;28;98032;-76
2023/05/03 00:49:43;;;;;;;;;;;;;;;14.56;43.37;101727.91;4908150;28;98094;-76
2023/05/03 00:52:10;;;;;;;;;;;;;;;14.56;43.65;101729.81;4920229;28;99339;-77
2023/05/03 00:54:38;;;;;;;;;;;;;;;14.54;43.51;101727.38;4903594;28;98005;-76
2023/05/03 00:57:05;;;;;;;;;;;;;;;14.52;43.77;101720.56;4917950;28;98516;-77
2023/05/03 00:59:35;;;;;;;;;;;;;;;14.51;43.32;101727.09;4904251;28;99414;-76
2023/05/03 01:02:02;;;;;;;;;;;;;;;14.48;43.36;101712.94;4923203;28;97989;-76
2023/05/03 01:04:29;;;;;;;;;;;;;;;14.48;43.77;101717.53;4924445;28;97972;-77
2023/05/03 01:07:22;;;;;;;;;;;;;;;14.46;43.76;101716.97;4910464;28;98201;-76
2023/05/03 01:10:16;;;;;;;;;;;;;;;14.45;43.71;101723.47;4936480;28;98090;-77
2023/05/03 01:13:27;;;;;;;;;;;;;;;14.43;43.85;101720.22;4936811;28;98112;-76
2023/05/03 01:15:57;;;;;;;;;;;;;;;14.42;43.70;101726.72;4928681;28;98011;-76
2023/05/03 01:18:27;;;;;;;;;;;;;;;14.40;43.63;101723.47;4941187;28;98459;-76
2023/05/03 01:20:55;;;;;;;;;;;;;;;14.38;43.51;101729.16;4924300;28;100181;-76
2023/05/03 01:23:35;;;;;;;;;;;;;;;14.37;43.70;101719.38;4930617;28;98446;-76
2023/05/03 01:26:37;;;;;;;;;;;;;;;14.33;43.56;101720.97;4943697;28;98488;-76
2023/05/03 01:29:05;;;;;;;;;;;;;;;14.32;43.91;101719.34;4911505;28;98123;-76
2023/05/03 01:31:38;;;;;;;;;;;;;;;14.30;43.47;101726.91;4921573;28;98316;-76
2023/05/03 01:34:24;;;;;;;;;;;;;;;14.28;43.50;101728.28;4928145;28;98469;-76
2023/05/03 01:36:57;;;;;;;;;;;;;;;14.25;43.54;101725.00;4953149;28;97950;-76
2023/05/03 01:39:28;;;;;;;;;;;;;;;14.23;43.75;101729.88;4938161;28;98172;-76
2023/05/03 01:41:55;;;;;;;;;;;;;;;14.20;43.69;101722.25;4926829;28;98294;-76
2023/05/03 01:44:22;;;;;;;;;;;;;;;14.19;43.42;101723.34;4954175;28;98037;-76
2023/05/03 01:46:50;;;;;;;;;;;;;;;14.19;43.33;101725.25;4938502;28;98199;-76
2023/05/03 01:49:18;;;;;;;;;;;;;;;14.16;43.84;101729.28;4922628;28;100054;-76
2023/05/03 01:51:47;;;;;;;;;;;;;;;14.15;43.62;101726.84;4926712;28;98116;-76
2023/05/03 01:54:15;;;;;;;;;;;;;;;14.13;43.73;101726.28;4959448;28;98511;-76
2023/05/03 01:56:41;;;;;;;;;;;;;;;14.12;43.42;101724.66;4927380;28;99684;-76
2023/05/03 01:59:09;;;;;;;;;;;;;;;14.10;43.79;101722.19;4941636;27;98475;-76
2023/05/03 02:01:37;;;;;;;;;;;;;;;14.08;43.81;101718.09;4958942;28;97914;-76
2023/05/03 02:04:04;;;;;;;;;;;;;;;14.05;43.60;101722.16;4955086;28;98099;-76
2023/05/03 02:06:33;;;;;;;;;;;;;;;14.05;43.39;101718.63;4940927;28;98100;-76
2023/05/03 02:09:04;;;;;;;;;;;;;;;14.04;43.69;101725.13;4944224;28;98349;-76
2023/05/03 02:11:30;;;;;;;;;;;;;;;14.02;43.44;101721.84;4927607;28;98615;-76
2023/05/03 02:13:56;;;;;;;;;;;;;;;13.99;43.44;101726.72;4940644;28;98210;-76
2023/05/03 02:16:25;;;;;;;;;;;;;;;14.00;43.57;101722.13;4927651;28;97978;-76
2023/05/03 02:18:52;;;;;;;;;;;;;;;13.96;43.73;101723.72;4943756;28;98476;-76
2023/05/03 02:21:20;;;;;;;;;;;;;;;13.95;43.91;101722.06;4937627;28;99909;-76
2023/05/03 02:23:49;;;;;;;;;;;;;;;13.94;43.90;101717.72;4924669;28;98221;-76
2023/05/03 02:26:17;;;;;;;;;;;;;;;13.93;43.92;101719.63;4924550;28;99657;-75
2023/05/03 02:28:45;;;;;;;;;;;;;;;13.92;43.76;101730.75;4927653;28;98349;-76
2023/05/03 02:31:12;;;;;;;;;;;;;;;13.90;43.67;101728.25;4940488;28;98111;-76
2023/05/03 02:33:41;;;;;;;;;;;;;;;13.88;43.78;101727.72;4937624;28;100813;-76
2023/05/03 02:36:09;;;;;;;;;;;;;;;13.88;43.49;101725.00;4926548;28;97958;-76
2023/05/03 02:38:40;;;;;;;;;;;;;;;13.88;43.58;101735.03;4943281;28;99178;-76
2023/05/03 02:41:10;;;;;;;;;;;;;;;13.86;43.73;101729.84;4944868;28;98929;-76
2023/05/03 02:43:41;;;;;;;;;;;;;;;13.84;43.42;101726.59;4935607;28;98025;-76
2023/05/03 02:46:08;;;;;;;;;;;;;;;13.83;43.47;101726.84;4926889;28;98058;-76
2023/05/03 02:48:37;;;;;;;;;;;;;;;13.82;43.63;101719.81;4941877;28;98837;-76
2023/05/03 02:51:04;;;;;;;;;;;;;;;13.81;43.76;101735.25;4929219;28;98488;-76
2023/05/03 02:53:30;;;;;;;;;;;;;;;13.79;43.63;101725.72;4941250;28;99246;-76
2023/05/03 02:55:57;;;;;;;;;;;;;;;13.79;43.80;101731.16;4951351;28;98157;-76
2023/05/03 02:58:23;;;;;;;;;;;;;;;13.76;43.75;101732.50;4955953;28;98598;-76
2023/05/03 03:00:52;;;;;;;;;;;;;;;13.74;43.68;101737.34;4945260;28;99120;-76
2023/05/03 03:03:18;;;;;;;;;;;;;;;13.73;43.60;101741.94;4945686;28;97915;-76
2023/05/03 03:05:47;;;;;;;;;;;;;;;13.71;43.70;101738.66;4941615;28;98233;-76
2023/05/03 03:08:16;;;;;;;;;;;;;;;13.70;43.24;101731.63;4927185;28;99781;-76
2023/05/03 03:10:43;;;;;;;;;;;;;;;13.68;43.85;101746.53;4921918;28;98390;-76
2023/05/03 03:13:11;;;;;;;;;;;;;;;13.67;43.89;101742.97;4942761;28;97997;-76
2023/05/03 03:15:38;;;;;;;;;;;;;;;13.65;43.67;101747.84;4926482;28;98207;-76
2023/05/03 03:18:05;;;;;;;;;;;;;;;13.64;43.57;101750.81;4942865;28;98367;-76
2023/05/03 03:20:32;;;;;;;;;;;;;;;13.62;43.73;101748.34;4907194;28;98334;-76
2023/05/03 03:22:58;;;;;;;;;;;;;;;13.60;43.86;101750.50;4923384;28;98018;-76
2023/05/03 03:25:26;;;;;;;;;;;;;;;13.59;43.98;101746.16;4920066;28;99368;-76
2023/05/03 03:27:53;;;;;;;;;;;;;;;13.58;43.76;101754.53;4905241;28;98606;-75
2023/05/03 03:30:23;;;;;;;;;;;;;;;13.58;43.68;101759.97;4926136;28;101603;-75
2023/05/03 03:32:51;;;;;;;;;;;;;;;13.56;43.84;101753.97;4926287;28;101063;-76
2023/05/03 03:35:18;;;;;;;;;;;;;;;13.55;43.78;101753.16;4947334;28;97993;-76
2023/05/03 03:37:44;;;;;;;;;;;;;;;13.54;43.89;101762.34;4927185;28;98161;-75
2023/05/03 03:40:11;;;;;;;;;;;;;;;13.53;43.75;101768.84;4941908;28;98222;-75
2023/05/03 03:42:39;;;;;;;;;;;;;;;13.53;43.76;101766.16;4940812;28;98105;-75
2023/05/03 03:45:06;;;;;;;;;;;;;;;13.53;43.82;101770.75;4926720;28;98472;-75
2023/05/03 03:47:35;;;;;;;;;;;;;;;13.52;43.88;101775.34;4925831;28;98086;-75
2023/05/03 03:50:03;;;;;;;;;;;;;;;13.51;43.72;101777.22;4927707;28;98041;-75
2023/05/03 03:52:29;;;;;;;;;;;;;;;13.51;43.42;101779.94;4918997;28;98599;-76
2023/05/03 03:54:58;;;;;;;;;;;;;;;13.51;43.54;101777.22;4927660;28;98366;-76
2023/05/03 03:57:29;;;;;;;;;;;;;;;13.51;43.37;101779.13;4935376;28;98032;-76
2023/05/03 03:59:56;;;;;;;;;;;;;;;13.53;43.63;101784.31;4938928;28;98566;-76
2023/05/03 04:02:23;;;;;;;;;;;;;;;13.52;43.49;101783.47;4940495;28;98221;-76
2023/05/03 04:04:49;;;;;;;;;;;;;;;13.53;43.72;101782.41;4923628;28;98033;-76
2023/05/03 04:07:17;;;;;;;;;;;;;;;13.54;43.69;101784.03;4940385;28;100437;-77
2023/05/03 04:09:44;;;;;;;;;;;;;;;13.55;43.81;101785.66;4920618;28;98131;-76
2023/05/03 04:12:12;;;;;;;;;;;;;;;13.58;43.65;101796.00;4925800;28;99361;-76
2023/05/03 04:14:39;;;;;;;;;;;;;;;13.60;43.37;101803.88;4938014;28;97948;-76
2023/05/03 04:17:05;;;;;;;;;;;;;;;13.61;43.31;101805.50;4954284;28;101137;-76
2023/05/03 04:19:32;;;;;;;;;;;;;;;13.62;43.42;101805.25;4928509;28;98197;-76
2023/05/03 04:21:58;;;;;;;;;;;;;;;13.64;43.49;101797.69;4925360;28;97912;-75
2023/05/03 04:24:29;;;;;;;;;;;;;;;13.65;43.33;101803.94;4927794;28;98025;-75
2023/05/03 04:26:57;;;;;;;;;;;;;;;13.68;43.45;101815.06;4927692;28;98319;-76
2023/05/03 04:29:26;;;;;;;;;;;;;;;13.71;43.26;101819.16;4953240;28;100400;-75
2023/05/03 04:31:53;;;;;;;;;;;;;;;13.73;43.34;101825.97;4922765;28;98336;-76
2023/05/03 04:34:22;;;;;;;;;;;;;;;13.78;43.25;101829.78;4954341;28;98506;-75
2023/05/03 04:36:48;;;;;;;;;;;;;;;13.80;43.43;101838.50;4953318;28;98167;-76
2023/05/03 04:39:15;;;;;;;;;;;;;;;13.84;43.51;101835.00;4921024;28;100645;-76
2023/05/03 04:41:44;;;;;;;;;;;;;;;13.88;43.53;101843.44;4937756;28;97952;-75
2023/05/03 04:44:13;;;;;;;;;;;;;;;13.91;43.18;101842.91;4934980;28;98110;-75
2023/05/03 04:46:39;;;;;;;;;;;;;;;13.94;43.26;101843.22;4928542;28;98197;-75
2023/05/03 04:49:06;;;;;;;;;;;;;;;13.96;43.52;101849.22;4922765;27;98308;-75
2023/05/03 04:51:32;;;;;;;;;;;;;;;14.01;43.44;101856.59;4939508;28;98019;-76
2023/05/03 04:53:59;;;;;;;;;;;;;;;14.04;43.30;101856.06;4925734;28;98659;-76
2023/05/03 04:56:28;;;;;;;;;;;;;;;14.09;43.20;101860.72;4940898;28;98352;-75
2023/05/03 04:58:55;;;;;;;;;;;;;;;14.12;43.26;101844.75;4928327;28;98899;-76
2023/05/03 05:01:25;;;;;;;;;;;;;;;14.18;43.40;101859.16;4939925;28;99780;-76
2023/05/03 05:03:54;;;;;;;;;;;;;;;14.22;43.16;101847.53;4926361;28;98418;-76
2023/05/03 05:06:22;;;;;;;;;;;;;;;14.29;43.01;101854.66;4951432;28;98167;-76
2023/05/03 05:08:50;;;;;;;;;;;;;;;14.35;43.27;101853.63;4942007;28;99652;-76
2023/05/03 05:11:19;;;;;;;;;;;;;;;14.43;43.27;101858.59;4922167;28;98139;-76
2023/05/03 05:13:47;;;;;;;;;;;;;;;14.49;42.88;101852.13;4951897;28;98538;-76
2023/05/03 05:16:15;;;;;;;;;;;;;;;14.55;43.16;101853.81;4940841;28;101453;-76
2023/05/03 05:18:42;;;;;;;;;;;;;;;14.63;42.79;101857.94;4936879;28;98865;-76
2023/05/03 05:21:12;;;;;;;;;;;;;;;14.69;43.12;101859.59;4935111;28;99374;-76
2023/05/03 05:23:40;;;;;;;;;;;;;;;14.72;43.12;101862.59;4922098;28;98641;-77
2023/05/03 05:26:10;;;;;;;;;;;;;;;14.87;42.89;101869.22;4939734;28;98116;-76
2023/05/03 05:28:37;;;;;;;;;;;;;;;14.91;42.98;101871.16;4953910;28;98407;-76
2023/05/03 05:31:03;;;;;;;;;;;;;;;15.01;42.74;101870.38;4917089;28;98283;-76
2023/05/03 05:33:32;;;;;;;;;;;;;;;15.02;42.95;101863.06;4922951;28;98054;-76
2023/05/03 05:35:59;;;;;;;;;;;;;;;15.21;42.72;101878.66;4918634;28;98078;-76
2023/05/03 05:38:27;;;;;;;;;;;;;;;15.34;42.50;101871.09;4949171;28;99682;-76
2023/05/03 05:40:57;;;;;;;;;;;;;;;15.52;42.47;101876.03;4924374;28;98165;-76
2023/05/03 05:43:27;;;;;;;;;;;;;;;15.71;42.15;101873.69;4920077;28;98382;-76
2023/05/03 05:45:55;;;;;;;;;;;;;;;15.87;42.21;101878.06;4923589;28;98753;-77
2023/05/03 05:48:24;;;;;;;;;;;;;;;16.05;42.02;101882.19;4936436;28;98614;-77
2023/05/03 05:50:53;;;;;;;;;;;;;;;16.23;42.15;101890.91;4934760;28;98504;-76
2023/05/03 05:53:21;;;;;;;;;;;;;;;16.42;42.03;101886.56;4920602;28;99220;-76
2023/05/03 05:55:50;;;;;;;;;;;;;;;16.61;41.80;101878.66;4949366;28;98500;-77
2023/05/03 05:58:17;;;;;;;;;;;;;;;16.80;41.77;101878.97;4924363;28;101688;-77
2023/05/03 06:00:44;;;;;;;;;;;;;;;17.01;41.72;101877.81;4951070;28;98131;-77
2023/05/03 06:03:11;;;;;;;;;;;;;;;17.22;41.63;101877.78;4919780;28;98073;-77
2023/05/03 06:05:38;;;;;;;;;;;;;;;17.45;41.49;101884.47;4920532;28;98246;-77
2023/05/03 06:08:07;;;;;;;;;;;;;;;17.67;41.29;101877.53;4937674;28;98191;-76
2023/05/03 06:10:37;;;;;;;;;;;;;;;17.91;41.28;101874.16;4954868;28;98059;-77
2023/05/03 06:13:03;;;;;;;;;;;;;;;18.14;41.18;101878.09;4922215;28;98181;-76
2023/05/03 06:15:30;;;;;;;;;;;;;;;18.39;41.18;101877.91;4943951;28;98613;-76
2023/05/03 06:17:57;;;;;;;;;;;;;;;18.64;41.03;101887.78;4938644;28;98186;-76
2023/05/03 06:20:25;;;;;;;;;;;;;;;18.87;41.08;101875.31;4922916;28;98046;-76
2023/05/03 06:22:53;;;;;;;;;;;;;;;19.15;40.81;101882.94;4930499;28;98611;-76
2023/05/03 06:25:20;;;;;;;;;;;;;;;19.49;40.68;101877.28;4946093;28;98126;-76
2023/05/03 06:27:47;;;;;;;;;;;;;;;20.04;40.01;101889.44;4930190;28;98035;-77
2023/05/03 06:30:13;;;;;;;;;;;;;;;20.52;39.87;101891.16;4924746;28;98240;-77
2023/05/03 06:32:41;;;;;;;;;;;;;;;20.95;39.86;101896.41;4940106;28;98280;-77
2023/05/03 06:35:11;;;;;;;;;;;;;;;21.20;39.73;101892.34;4922872;28;98117;-77
2023/05/03 06:37:38;;;;;;;;;;;;;;;21.28;39.96;101897.13;4921249;28;98141;-77
2023/05/03 06:40:07;;;;;;;;;;;;;;;21.71;39.77;101902.28;4921935;28;98623;-77
2023/05/03 06:42:36;;;;;;;;;;;;;;;22.15;39.53;101900.75;4943831;28;97971;-78
2023/05/03 06:45:08;;;;;;;;;;;;;;;22.49;39.54;101891.97;4929911;28;98278;-78
2023/05/03 06:47:38;;;;;;;;;;;;;;;22.87;39.50;101897.00;4943667;28;98378;-78
2023/05/03 06:50:09;;;;;;;;;;;;;;;23.21;39.32;101888.91;4945764;28;97893;-79
2023/05/03 06:52:38;;;;;;;;;;;;;;;23.56;39.28;101897.25;4924995;28;98012;-77
2023/05/03 06:55:10;;;;;;;;;;;;;;;23.90;39.38;101891.03;4926752;28;98132;-79
2023/05/03 06:57:41;;;;;;;;;;;;;;;24.29;38.87;101902.16;4942649;28;98730;-79
2023/05/03 07:00:10;;;;;;;;;;;;;;;24.62;38.94;101889.50;4925127;28;98288;-79
2023/05/03 07:02:39;;;;;;;;;;;;;;;24.97;38.76;101892.94;4929293;28;100756;-79
2023/05/03 07:05:05;;;;;;;;;;;;;;;25.33;38.51;101888.09;4946184;28;98043;-79
2023/05/03 07:07:35;;;;;;;;;;;;;;;25.67;38.50;101893.38;4927070;28;99685;-79
2023/05/03 07:10:04;;;;;;;;;;;;;;;26.05;38.45;101894.41;4927257;28;100386;-80
2023/05/03 07:12:31;;;;;;;;;;;;;;;26.49;38.20;101892.06;4943656;28;98067;-80
2023/05/03 07:15:00;;;;;;;;;;;;;;;26.96;37.99;101892.50;4954467;28;98049;-79
2023/05/03 07:17:28;;;;;;;;;;;;;;;27.32;37.69;101891.72;4953811;28;100260;-81
2023/05/03 07:19:58;;;;;;;;;;;;;;;27.65;37.67;101890.72;4923402;28;98361;-82
2023/05/03 07:22:26;;;;;;;;;;;;;;;28.04;37.46;101896.66;4941816;28;97956;-81
2023/05/03 07:24:58;;;;;;;;;;;;;;;28.40;37.67;101892.94;4952975;28;98275;-82
2023/05/03 07:27:27;;;;;;;;;;;;;;;28.77;37.30;101887.97;4924116;28;98321;-83
2023/05/03 07:29:53;;;;;;;;;;;;;;;29.13;37.35;101886.09;4923330;28;97996;-80
2023/05/03 07:32:26;;;;;;;;;;;;;;;29.50;37.08;101892.09;4926635;28;98357;-80
2023/05/03 07:34:54;;;;;;;;;;;;;;;29.87;37.27;101897.28;4919574;28;98028;-83
2023/05/03 07:37:22;;;;;;;;;;;;;;;30.24;37.27;101885.72;4941287;28;98993;-80
2023/05/03 07:39:48;;;;;;;;;;;;;;;30.58;36.86;101881.19;4936417;28;98191;-81
2023/05/03 07:42:15;;;;;;;;;;;;;;;30.96;36.81;101885.03;4944430;28;98570;-83
2023/05/03 07:44:42;;;;;;;;;;;;;;;31.37;36.63;101885.28;4940145;28;98077;-84
2023/05/03 07:47:11;;;;;;;;;;;;;;;31.80;36.64;101883.09;4940017;28;98254;-83
2023/05/03 07:49:38;;;;;;;;;;;;;;;32.25;36.27;101876.44;4926255;28;97891;-83
2023/05/03 07:52:07;;;;;;;;;;;;;;;32.78;36.07;101881.75;4923857;28;98408;-81
2023/05/03 07:54:35;;;;;;;;;;;;;;;32.47;36.92;101880.28;4942350;28;98562;-81
2023/05/03 07:57:05;;;;;;;;;;;;;;;32.16;37.33;101875.97;4926442;28;98361;-82
2023/05/03 07:59:34;;;;;;;;;;;;;;;32.75;37.02;101868.56;4929478;28;97831;-82
2023/05/03 08:02:01;;;;;;;;;;;;;;;33.78;35.88;101870.44;4953690;28;98061;-85
2023/05/03 08:04:27;;;;;;;;;;;;;;;33.81;36.00;101870.44;4943385;28;98211;-84
2023/05/03 08:06:57;;;;;;;;;;;;;;;33.74;36.68;101869.63;4921585;28;98141;-84
2023/05/03 08:09:24;;;;;;;;;;;;;;;34.10;36.05;101871.34;4940100;28;97848;-84
2023/05/03 08:11:56;;;;;;;;;;;;;;;34.97;35.60;101875.03;4923510;28;98116;-83
2023/05/03 08:14:23;;;;;;;;;;;;;;;36.37;34.71;101874.13;4919629;28;97956;-84
2023/05/03 08:16:50;;;;;;;;;;;;;;;36.31;35.17;101858.91;4925641;28;97923;-85
2023/05/03 08:19:24;;;;;;;;;;;;;;;37.71;34.31;101875.25;4926001;28;97828;-84
2023/05/03 08:21:53;;;;;;;;;;;;;;;38.78;33.41;101872.88;4926888;28;98115;-84
2023/05/03 08:24:21;;;;;;;;;;;;;;;39.58;33.31;101858.88;4938976;28;98668;-85
2023/05/03 08:26:52;;;;;;;;;;;;;;;40.24;33.06;101860.66;4923186;28;98701;-83
2023/05/03 08:29:20;;;;;;;;;;;;;;;41.56;32.08;101860.00;4938140;28;97912;-82
2023/05/03 08:31:49;;;;;;;;;;;;;;;42.86;32.06;101866.72;4920783;28;98968;-83
2023/05/03 08:34:19;;;;;;;;;;;;;;;41.77;33.32;101860.56;4951129;28;97970;-88
2023/05/03 08:36:52;;;;;;;;;;;;;;;40.03;35.22;101844.22;4954781;28;98083;-81
2023/05/03 08:39:26;;;;;;;;;;;;;;;39.09;35.97;101850.19;4940150;28;97963;-81
2023/05/03 08:41:53;;;;;;;;;;;;;;;39.82;35.31;101842.69;4926281;28;98245;-87
2023/05/03 08:44:30;;;;;;;;;;;;;;;39.85;35.24;101853.09;4954083;28;99374;-81
2023/05/03 08:46:59;;;;;;;;;;;;;;;40.39;34.67;101844.94;4921181;28;98787;-89
2023/05/03 08:49:26;;;;;;;;;;;;;;;39.06;36.10;101843.41;4919863;28;99152;-87
2023/05/03 08:51:54;;;;;;;;;;;;;;;40.32;34.39;101847.16;4939107;28;97940;-87
2023/05/03 08:54:23;;;;;;;;;;;;;;;42.54;32.82;101855.72;4922481;28;98070;-88
2023/05/03 08:56:50;;;;;;;;;;;;;;;44.02;32.04;101853.47;4951255;28;97982;-81
2023/05/03 08:59:23;;;;;;;;;;;;;;;45.45;31.43;101855.03;4953946;28;98216;-81
2023/05/03 09:01:50;;;;;;;;;;;;;;;46.60;30.89;101856.69;4952163;28;98097;-80
2023/05/03 09:04:17;;;;;;;;;;;;;;;45.96;31.78;101840.78;4917250;28;97940;-82
2023/05/03 09:06:46;;;;;;;;;;;;;;;45.00;33.26;101842.41;4950680;28;99586;-82
2023/05/03 09:09:14;;;;;;;;;;;;;;;46.41;32.00;101841.75;4937571;28;98227;-82
2023/05/03 09:11:41;;;;;;;;;;;;;;;47.46;31.47;101841.47;4968607;27;98137;-82
2023/05/03 09:14:15;;;;;;;;;;;;;;;48.48;30.70;101834.44;4973404;28;97950;-78
2023/05/03 09:16:43;;;;;;;;;;;;;;;49.36;30.53;101830.13;4944272;28;99055;-78
2023/05/03 09:19:11;;;;;;;;;;;;;;;49.16;30.94;101833.88;4926854;28;98239;-83
2023/05/03 09:21:39;;;;;;;;;;;;;;;48.84;31.36;101825.22;4942211;28;98182;-78
2023/05/03 09:24:20;;;;;;;;;;;;;;;48.78;31.79;101826.47;4945009;28;98105;-77
2023/05/03 09:26:50;;;;;;;;;;;;;;;48.88;31.99;101814.34;4945157;28;98874;-83
2023/05/03 09:29:35;;;;;;;;;;;;;;;49.33;31.92;101817.66;4937684;28;99171;-83
2023/05/03 09:32:07;;;;;;;;;;;;;;;50.33;31.20;101813.06;4922137;28;98308;-82
2023/05/03 09:34:34;;;;;;;;;;;;;;;51.46;30.67;101814.84;4955274;28;98331;-82
2023/05/03 09:37:01;;;;;;;;;;;;;;;51.86;30.05;101812.69;4927024;28;98073;-75
2023/05/03 09:39:29;;;;;;;;;;;;;;;50.80;31.20;101811.38;4924038;28;98232;-75
2023/05/03 09:41:56;;;;;;;;;;;;;;;48.25;33.48;101801.91;4923573;28;98323;-74
2023/05/03 09:44:52;;;;;;;;;;;;;;;49.26;32.23;101803.03;4937983;28;98161;-81
2023/05/03 09:47:24;;;;;;;;;;;;;;;51.41;30.54;101815.63;4941663;28;98268;-76
2023/05/03 09:49:52;;;;;;;;;;;;;;;52.38;29.80;101817.72;4944131;28;98334;-83
2023/05/03 09:52:18;;;;;;;;;;;;;;;53.37;29.31;101813.13;4917441;28;98097;-76
2023/05/03 09:54:46;;;;;;;;;;;;;;;54.62;28.30;101808.25;4938224;28;97977;-83
2023/05/03 09:57:13;;;;;;;;;;;;;;;55.24;28.24;101801.47;4924830;28;98959;-77
2023/05/03 09:59:41;;;;;;;;;;;;;;;54.41;29.55;101793.59;4931811;28;97983;-76
2023/05/03 10:02:09;;;;;;;;;;;;;;;52.09;31.65;101783.91;4958178;28;98231;-83
2023/05/03 10:04:45;;;;;;;;;;;;;;;53.57;29.71;101783.88;4930992;28;98195;-76
2023/05/03 10:07:19;;;;;;;;;;;;;;;55.14;28.35;101789.53;4926698;28;99090;-82
2023/05/03 10:09:49;;;;;;;;;;;;;;;54.77;29.35;101784.66;4947881;28;98021;-76
2023/05/03 10:12:16;;;;;;;;;;;;;;;52.14;31.88;101766.63;4929036;28;98056;-74
2023/05/03 10:14:46;;;;;;;;;;;;;;;51.12;32.50;101756.66;4928491;28;97999;-74
2023/05/03 10:17:26;;;;;;;;;;;;;;;51.76;31.60;101766.25;4929420;28;98230;-74
2023/05/03 10:19:53;;;;;;;;;;;;;;;49.24;33.29;101746.28;4922992;28;98888;-79
2023/05/03 10:22:21;;;;;;;;;;;;;;;52.00;30.68;101759.09;4962776;28;99900;-82
2023/05/03 10:25:00;;;;;;;;;;;;;;;53.10;29.29;101763.91;4954755;28;98224;-82
2023/05/03 10:28:08;;;;;;;;;;;;;;;53.83;29.05;101760.25;4959097;28;98904;-75
2023/05/03 10:30:40;;;;;;;;;;;;;;;54.90;28.72;101762.41;4886959;28;99390;-82
2023/05/03 10:33:12;;;;;;;;;;;;;;;55.22;28.26;101760.81;4933819;28;98187;-75
2023/05/03 10:35:40;;;;;;;;;;;;;;;55.90;28.50;101754.53;4959737;28;98140;-75
2023/05/03 10:38:18;;;;;;;;;;;;;;;56.29;28.36;101744.97;4925416;28;98157;-80
2023/05/03 10:40:45;;;;;;;;;;;;;;;56.48;28.23;101748.47;4948160;28;98178;-80
2023/05/03 10:43:30;;;;;;;;;;;;;;;54.26;30.18;101733.53;4929967;28;98302;-82
2023/05/03 10:46:05;;;;;;;;;;;;;;;53.46;30.10;101732.16;4954835;28;98098;-74
2023/05/03 10:48:35;;;;;;;;;;;;;;;52.06;30.75;101728.25;4968615;28;98116;-85
2023/05/03 10:51:35;;;;;;;;;;;;;;;51.57;30.42;101725.06;4926091;28;98117;-76
2023/05/03 10:54:03;;;;;;;;;;;;;;;51.99;30.21;101729.59;4923928;28;98095;-85
2023/05/03 10:56:31;;;;;;;;;;;;;;;52.02;29.69;101724.88;4939881;28;99174;-76
2023/05/03 10:58:59;;;;;;;;;;;;;;;51.99;29.93;101723.06;4943493;27;98040;-76
2023/05/03 11:01:27;;;;;;;;;;;;;;;52.03;29.22;101723.56;4939455;28;98268;-83
2023/05/03 11:04:07;;;;;;;;;;;;;;;52.11;29.47;101723.78;4925738;28;98358;-85
2023/05/03 11:06:37;;;;;;;;;;;;;;;52.11;28.99;101724.56;4962498;28;98349;-78
2023/05/03 11:09:09;;;;;;;;;;;;;;;51.06;30.06;101712.88;4929944;27;98667;-85
2023/05/03 11:11:38;;;;;;;;;;;;;;;51.63;29.35;101722.16;4966546;28;100699;-86
2023/05/03 11:14:07;;;;;;;;;;;;;;;51.78;28.83;101716.88;4945968;28;98125;-85
2023/05/03 11:16:35;;;;;;;;;;;;;;;51.64;29.14;101726.59;4962470;28;98175;-77
2023/05/03 11:19:02;;;;;;;;;;;;;;;49.36;31.20;101710.72;4947145;27;97925;-79
2023/05/03 11:21:30;;;;;;;;;;;;;;;48.55;31.25;101711.88;4922115;28;98166;-78
2023/05/03 11:24:00;;;;;;;;;;;;;;;48.22;31.22;101720.06;4945927;28;97980;-79
2023/05/03 11:26:30;;;;;;;;;;;;;;;48.22;31.27;101709.41;4928384;28;98158;-85
2023/05/03 11:28:56;;;;;;;;;;;;;;;47.52;31.15;101709.50;4929218;28;98178;-86
2023/05/03 11:31:26;;;;;;;;;;;;;;;47.07;31.54;101714.50;4929501;28;98066;-79
2023/05/03 11:33:53;;;;;;;;;;;;;;;46.56;31.68;101715.66;4957700;27;98468;-79
2023/05/03 11:36:21;;;;;;;;;;;;;;;46.34;31.67;101713.97;4946942;28;98770;-78
2023/05/03 11:38:51;;;;;;;;;;;;;;;46.38;31.53;101713.75;4925976;28;98696;-77
2023/05/03 11:41:23;;;;;;;;;;;;;;;46.68;30.88;101718.22;4928138;28;98735;-83
2023/05/03 11:43:52;;;;;;;;;;;;;;;46.93;30.89;101714.00;4929982;28;98142;-80
2023/05/03 11:46:22;;;;;;;;;;;;;;;46.98;30.64;101709.72;4958779;27;99015;-84
2023/05/03 11:48:49;;;;;;;;;;;;;;;46.99;30.08;101711.28;4925324;27;98494;-78
2023/05/03 11:51:24;;;;;;;;;;;;;;;46.62;30.39;101703.09;4928340;28;98346;-78
2023/05/03 11:53:52;;;;;;;;;;;;;;;46.23;30.74;101711.66;4942303;28;98116;-79
2023/05/03 11:56:19;;;;;;;;;;;;;;;45.80;30.86;101704.50;4930384;28;98429;-83
2023/05/03 11:58:55;;;;;;;;;;;;;;;45.42;31.17;101699.47;4929691;28;98163;-79
2023/05/03 12:01:34;;;;;;;;;;;;;;;44.88;31.42;101704.09;4942027;28;98012;-79
2023/05/03 12:04:04;;;;;;;;;;;;;;;44.45;31.38;101704.00;4945297;28;98205;-86
2023/05/03 12:06:34;;;;;;;;;;;;;;;44.10;31.88;101709.97;4932421;28;98437;-86
2023/05/03 12:09:02;;;;;;;;;;;;;;;43.76;31.80;101704.50;4938630;28;98487;-79
2023/05/03 12:11:41;;;;;;;;;;;;;;;43.28;32.12;101693.47;4958348;28;97968;-80
2023/05/03 12:14:10;;;;;;;;;;;;;;;42.85;31.94;101697.16;4944157;28;98029;-86
2023/05/03 12:16:51;;;;;;;;;;;;;;;42.49;32.44;101701.31;4940117;28;97961;-80
2023/05/03 12:19:31;;;;;;;;;;;;;;;42.15;32.51;101700.03;4926985;28;98785;-80
2023/05/03 12:21:58;;;;;;;;;;;;;;;41.87;32.13;101698.97;4930602;28;97941;-83
2023/05/03 12:24:25;;;;;;;;;;;;;;;41.60;32.31;101705.09;4924461;28;98242;-80
2023/05/03 12:26:56;;;;;;;;;;;;;;;41.36;32.42;101696.16;4926330;28;98048;-81
2023/05/03 12:29:30;;;;;;;;;;;;;;;41.04;32.47;101685.84;4941389;28;97963;-87
2023/05/03 12:32:01;;;;;;;;;;;;;;;40.67;32.67;101682.44;4928351;28;98256;-76
2023/05/03 12:34:36;;;;;;;;;;;;;;;40.30;32.73;101681.06;4931991;28;98336;-87
2023/05/03 12:37:04;;;;;;;;;;;;;;;40.03;32.96;101678.50;4939765;28;98295;-87
2023/05/03 12:39:33;;;;;;;;;;;;;;;39.81;32.99;101680.28;4959560;28;98049;-87
2023/05/03 12:42:06;;;;;;;;;;;;;;;39.51;33.06;101674.53;4930045;28;97887;-87
2023/05/03 12:44:35;;;;;;;;;;;;;;;39.33;33.10;101671.34;4972898;27;98078;-84
2023/05/03 12:47:04;;;;;;;;;;;;;;;39.12;33.23;101669.78;4927847;28;98166;-81